FlightSource - Aviation Photo Database

World Wide Airport Lookup


Search by ICAO
Or
Search by City

FlightSource.ca - Aviation Photo Database - Berbérati Airport Information
Airport Identification
Name: Berbérati Airport
ICAO: FEFT
IATA: BBT
Airport Location
City: Berbérati
Region: HS
Country: Central African Republic
Continent: Africa
Latitude: 4.22158
Longitude: 15.7864
Airport Information
Type: Medium Airport
Elevation: 1929 Feet ASL
Flight Status: FEFT
More Info: FEFT
Airport Weather    
Metar: FEFT 251000Z 28008KT 9999 SCT022 30/24 Q1011
TAF:


Advertisement